sensor_id;sensor_type;location;lat;lon;timestamp;pressure;altitude;pressure_sealevel;temperature;humidity
20003;BME280;10162;41.600;23.806;2023-05-27T00:04:06;95095.34;;;12.41;100.00
20003;BME280;10162;41.600;23.806;2023-05-27T00:06:32;95086.50;;;12.29;100.00
20003;BME280;10162;41.600;23.806;2023-05-27T00:08:58;95081.44;;;12.34;100.00
20003;BME280;10162;41.600;23.806;2023-05-27T00:11:41;95072.13;;;12.45;100.00
20003;BME280;10162;41.600;23.806;2023-05-27T00:14:07;95089.84;;;12.50;100.00
20003;BME280;10162;41.600;23.806;2023-05-27T00:16:32;95087.56;;;12.66;100.00
20003;BME280;10162;41.600;23.806;2023-05-27T00:19:02;95096.47;;;12.59;100.00
20003;BME280;10162;41.600;23.806;2023-05-27T00:21:38;95078.81;;;12.34;100.00
20003;BME280;10162;41.600;23.806;2023-05-27T00:24:06;95091.59;;;12.75;100.00
20003;BME280;10162;41.600;23.806;2023-05-27T00:26:32;95089.22;;;12.54;100.00
20003;BME280;10162;41.600;23.806;2023-05-27T00:28:58;95086.88;;;12.39;100.00
20003;BME280;10162;41.600;23.806;2023-05-27T00:31:38;95082.78;;;12.57;100.00
20003;BME280;10162;41.600;23.806;2023-05-27T00:34:05;95102.66;;;12.77;100.00
20003;BME280;10162;41.600;23.806;2023-05-27T00:36:31;95071.09;;;12.53;100.00
20003;BME280;10162;41.600;23.806;2023-05-27T00:39:00;95081.97;;;12.50;100.00
20003;BME280;10162;41.600;23.806;2023-05-27T00:41:27;95074.66;;;12.00;100.00
20003;BME280;10162;41.600;23.806;2023-05-27T00:43:56;95066.19;;;12.12;100.00
20003;BME280;10162;41.600;23.806;2023-05-27T00:46:22;95073.59;;;12.28;100.00
20003;BME280;10162;41.600;23.806;2023-05-27T00:48:48;95090.31;;;12.27;100.00
20003;BME280;10162;41.600;23.806;2023-05-27T00:51:23;95056.91;;;12.02;100.00
20003;BME280;10162;41.600;23.806;2023-05-27T00:53:50;95070.66;;;11.78;100.00
20003;BME280;10162;41.600;23.806;2023-05-27T00:56:16;95064.78;;;11.70;100.00
20003;BME280;10162;41.600;23.806;2023-05-27T00:58:43;95064.38;;;11.92;100.00
20003;BME280;10162;41.600;23.806;2023-05-27T01:04:41;95048.50;;;11.41;100.00
20003;BME280;10162;41.600;23.806;2023-05-27T01:09:55;95078.31;;;11.60;100.00
20003;BME280;10162;41.600;23.806;2023-05-27T01:15:53;95043.25;;;11.08;100.00
20003;BME280;10162;41.600;23.806;2023-05-27T01:18:28;95036.13;;;10.83;100.00
20003;BME280;10162;41.600;23.806;2023-05-27T01:21:30;95043.22;;;11.02;100.00
20003;BME280;10162;41.600;23.806;2023-05-27T01:24:02;95052.50;;;11.04;100.00
20003;BME280;10162;41.600;23.806;2023-05-27T01:26:29;95054.50;;;11.02;100.00
20003;BME280;10162;41.600;23.806;2023-05-27T01:28:54;95059.56;;;11.37;100.00
20003;BME280;10162;41.600;23.806;2023-05-27T01:38:05;95070.00;;;11.17;100.00
20003;BME280;10162;41.600;23.806;2023-05-27T01:44:27;95057.34;;;11.21;100.00
20003;BME280;10162;41.600;23.806;2023-05-27T01:46:59;95048.91;;;11.32;100.00
20003;BME280;10162;41.600;23.806;2023-05-27T01:49:25;95049.28;;;11.02;100.00
20003;BME280;10162;41.600;23.806;2023-05-27T01:52:13;95075.59;;;10.94;100.00
20003;BME280;10162;41.600;23.806;2023-05-27T01:54:41;95066.94;;;10.94;100.00
20003;BME280;10162;41.600;23.806;2023-05-27T01:57:07;95062.13;;;10.91;100.00
20003;BME280;10162;41.600;23.806;2023-05-27T01:59:33;95059.09;;;10.87;100.00
20003;BME280;10162;41.600;23.806;2023-05-27T02:05:19;95081.88;;;11.06;100.00
20003;BME280;10162;41.600;23.806;2023-05-27T02:07:46;95060.31;;;10.91;100.00
20003;BME280;10162;41.600;23.806;2023-05-27T02:10:13;95061.84;;;10.66;100.00
20003;BME280;10162;41.600;23.806;2023-05-27T02:12:40;95067.38;;;10.97;100.00
20003;BME280;10162;41.600;23.806;2023-05-27T02:15:06;95081.06;;;11.06;100.00
20003;BME280;10162;41.600;23.806;2023-05-27T02:17:33;95074.41;;;10.90;100.00
20003;BME280;10162;41.600;23.806;2023-05-27T02:19:58;95075.41;;;10.96;100.00
20003;BME280;10162;41.600;23.806;2023-05-27T02:26:18;95065.09;;;10.68;100.00
20003;BME280;10162;41.600;23.806;2023-05-27T02:28:45;95071.94;;;10.69;100.00
20003;BME280;10162;41.600;23.806;2023-05-27T02:31:24;95062.47;;;10.68;100.00
20003;BME280;10162;41.600;23.806;2023-05-27T02:33:54;95059.88;;;10.74;100.00
20003;BME280;10162;41.600;23.806;2023-05-27T02:36:20;95045.22;;;10.80;100.00
20003;BME280;10162;41.600;23.806;2023-05-27T02:38:47;95067.94;;;10.80;100.00
20003;BME280;10162;41.600;23.806;2023-05-27T02:44:36;95051.03;;;10.89;100.00
20003;BME280;10162;41.600;23.806;2023-05-27T02:47:02;95045.38;;;10.72;100.00
20003;BME280;10162;41.600;23.806;2023-05-27T02:49:28;95063.69;;;10.78;100.00
20003;BME280;10162;41.600;23.806;2023-05-27T02:55:50;95067.78;;;11.01;100.00
20003;BME280;10162;41.600;23.806;2023-05-27T02:58:16;95061.94;;;10.92;100.00
20003;BME280;10162;41.600;23.806;2023-05-27T03:01:02;95083.25;;;10.96;100.00
20003;BME280;10162;41.600;23.806;2023-05-27T03:03:31;95078.78;;;10.76;100.00
20003;BME280;10162;41.600;23.806;2023-05-27T03:05:57;95062.50;;;10.74;100.00
20003;BME280;10162;41.600;23.806;2023-05-27T03:08:24;95084.19;;;10.68;100.00
20003;BME280;10162;41.600;23.806;2023-05-27T03:13:44;95064.84;;;10.56;100.00
20003;BME280;10162;41.600;23.806;2023-05-27T03:16:10;95074.13;;;10.59;100.00
20003;BME280;10162;41.600;23.806;2023-05-27T03:18:36;95077.09;;;10.56;100.00
20003;BME280;10162;41.600;23.806;2023-05-27T03:21:12;95074.13;;;10.59;100.00
20003;BME280;10162;41.600;23.806;2023-05-27T03:23:42;95088.22;;;10.77;100.00
20003;BME280;10162;41.600;23.806;2023-05-27T03:26:07;95082.63;;;10.81;100.00
20003;BME280;10162;41.600;23.806;2023-05-27T03:28:33;95085.03;;;10.75;100.00
20003;BME280;10162;41.600;23.806;2023-05-27T03:31:11;95087.75;;;11.22;100.00
20003;BME280;10162;41.600;23.806;2023-05-27T03:34:02;95093.81;;;11.48;100.00
20003;BME280;10162;41.600;23.806;2023-05-27T03:36:30;95083.75;;;11.39;100.00
20003;BME280;10162;41.600;23.806;2023-05-27T03:38:58;95085.75;;;11.37;100.00
20003;BME280;10162;41.600;23.806;2023-05-27T03:41:30;95084.16;;;11.55;100.00
20003;BME280;10162;41.600;23.806;2023-05-27T03:43:56;95072.88;;;11.62;100.00
20003;BME280;10162;41.600;23.806;2023-05-27T03:46:22;95079.53;;;11.77;100.00
20003;BME280;10162;41.600;23.806;2023-05-27T03:48:50;95080.13;;;11.59;100.00
20003;BME280;10162;41.600;23.806;2023-05-27T03:51:48;95102.69;;;11.80;100.00
20003;BME280;10162;41.600;23.806;2023-05-27T03:54:16;95093.00;;;11.87;100.00
20003;BME280;10162;41.600;23.806;2023-05-27T03:56:42;95085.53;;;11.97;100.00
20003;BME280;10162;41.600;23.806;2023-05-27T03:59:08;95100.63;;;12.09;100.00
20003;BME280;10162;41.600;23.806;2023-05-27T04:04:40;95110.13;;;11.64;100.00
20003;BME280;10162;41.600;23.806;2023-05-27T04:07:06;95109.94;;;11.91;100.00
20003;BME280;10162;41.600;23.806;2023-05-27T04:09:34;95108.50;;;11.63;100.00
20003;BME280;10162;41.600;23.806;2023-05-27T04:15:54;95110.13;;;11.70;100.00
20003;BME280;10162;41.600;23.806;2023-05-27T04:18:22;95110.97;;;11.84;100.00
20003;BME280;10162;41.600;23.806;2023-05-27T04:24:41;95128.44;;;11.70;100.00
20003;BME280;10162;41.600;23.806;2023-05-27T04:27:11;95124.03;;;11.71;100.00
20003;BME280;10162;41.600;23.806;2023-05-27T04:29:38;95126.06;;;12.02;100.00
20003;BME280;10162;41.600;23.806;2023-05-27T04:35:10;95121.16;;;12.38;100.00
20003;BME280;10162;41.600;23.806;2023-05-27T04:37:37;95128.97;;;12.58;100.00
20003;BME280;10162;41.600;23.806;2023-05-27T04:40:04;95132.63;;;12.37;100.00
20003;BME280;10162;41.600;23.806;2023-05-27T04:42:34;95115.53;;;12.28;100.00
20003;BME280;10162;41.600;23.806;2023-05-27T04:45:04;95109.69;;;12.19;100.00
20003;BME280;10162;41.600;23.806;2023-05-27T04:47:32;95110.44;;;12.46;100.00
20003;BME280;10162;41.600;23.806;2023-05-27T04:49:58;95107.38;;;12.56;100.00
20003;BME280;10162;41.600;23.806;2023-05-27T04:52:44;95122.44;;;12.80;100.00
20003;BME280;10162;41.600;23.806;2023-05-27T04:55:12;95108.00;;;13.02;100.00
20003;BME280;10162;41.600;23.806;2023-05-27T04:57:39;95114.22;;;13.14;100.00
20003;BME280;10162;41.600;23.806;2023-05-27T05:00:09;95141.03;;;13.54;100.00
20003;BME280;10162;41.600;23.806;2023-05-27T05:02:37;95116.38;;;13.55;100.00
20003;BME280;10162;41.600;23.806;2023-05-27T05:05:10;95126.50;;;13.52;100.00
20003;BME280;10162;41.600;23.806;2023-05-27T05:07:36;95133.50;;;13.64;100.00
20003;BME280;10162;41.600;23.806;2023-05-27T05:10:08;95132.31;;;14.10;100.00
20003;BME280;10162;41.600;23.806;2023-05-27T05:12:39;95116.09;;;13.95;100.00
20003;BME280;10162;41.600;23.806;2023-05-27T05:15:07;95123.66;;;14.03;100.00
20003;BME280;10162;41.600;23.806;2023-05-27T05:17:34;95129.84;;;13.65;100.00
20003;BME280;10162;41.600;23.806;2023-05-27T05:20:01;95123.50;;;13.73;100.00
20003;BME280;10162;41.600;23.806;2023-05-27T05:26:20;95129.94;;;14.02;100.00
20003;BME280;10162;41.600;23.806;2023-05-27T05:28:48;95126.34;;;14.21;100.00
20003;BME280;10162;41.600;23.806;2023-05-27T05:31:35;95131.97;;;14.50;100.00
20003;BME280;10162;41.600;23.806;2023-05-27T05:34:02;95124.75;;;14.63;100.00
20003;BME280;10162;41.600;23.806;2023-05-27T05:36:29;95115.31;;;14.56;100.00
20003;BME280;10162;41.600;23.806;2023-05-27T05:39:03;95114.78;;;14.47;100.00
20003;BME280;10162;41.600;23.806;2023-05-27T05:41:33;95119.97;;;14.54;100.00
20003;BME280;10162;41.600;23.806;2023-05-27T05:43:59;95124.94;;;14.62;100.00
20003;BME280;10162;41.600;23.806;2023-05-27T05:46:25;95124.81;;;14.75;100.00
20003;BME280;10162;41.600;23.806;2023-05-27T05:48:52;95118.56;;;14.87;100.00
20003;BME280;10162;41.600;23.806;2023-05-27T05:51:27;95125.38;;;14.95;100.00
20003;BME280;10162;41.600;23.806;2023-05-27T05:53:57;95105.19;;;14.89;100.00
20003;BME280;10162;41.600;23.806;2023-05-27T05:56:24;95115.66;;;14.77;100.00
20003;BME280;10162;41.600;23.806;2023-05-27T05:58:51;95111.34;;;14.65;100.00
20003;BME280;10162;41.600;23.806;2023-05-27T06:01:22;95126.19;;;14.77;100.00
20003;BME280;10162;41.600;23.806;2023-05-27T06:03:48;95110.09;;;14.85;100.00
20003;BME280;10162;41.600;23.806;2023-05-27T06:06:26;95118.44;;;14.82;100.00
20003;BME280;10162;41.600;23.806;2023-05-27T06:09:15;95115.78;;;15.01;100.00
20003;BME280;10162;41.600;23.806;2023-05-27T06:11:41;95125.28;;;15.02;100.00
20003;BME280;10162;41.600;23.806;2023-05-27T06:14:07;95112.19;;;15.13;100.00
20003;BME280;10162;41.600;23.806;2023-05-27T06:16:34;95115.16;;;15.17;100.00
20003;BME280;10162;41.600;23.806;2023-05-27T06:19:02;95111.88;;;15.33;100.00
20003;BME280;10162;41.600;23.806;2023-05-27T06:21:29;95126.13;;;15.44;100.00
20003;BME280;10162;41.600;23.806;2023-05-27T06:24:23;95125.75;;;15.58;100.00
20003;BME280;10162;41.600;23.806;2023-05-27T06:26:59;95113.81;;;15.56;100.00
20003;BME280;10162;41.600;23.806;2023-05-27T06:29:26;95127.88;;;15.20;100.00
20003;BME280;10162;41.600;23.806;2023-05-27T06:31:53;95136.13;;;15.23;100.00
20003;BME280;10162;41.600;23.806;2023-05-27T06:34:22;95139.38;;;15.67;100.00
20003;BME280;10162;41.600;23.806;2023-05-27T06:36:48;95131.28;;;15.68;100.00
20003;BME280;10162;41.600;23.806;2023-05-27T06:39:15;95142.84;;;15.67;100.00
20003;BME280;10162;41.600;23.806;2023-05-27T06:41:47;95129.63;;;15.56;100.00
20003;BME280;10162;41.600;23.806;2023-05-27T06:44:50;95144.66;;;15.67;100.00
20003;BME280;10162;41.600;23.806;2023-05-27T06:47:22;95131.81;;;15.59;100.00
20003;BME280;10162;41.600;23.806;2023-05-27T06:49:50;95142.88;;;15.91;100.00
20003;BME280;10162;41.600;23.806;2023-05-27T06:52:16;95132.56;;;15.89;100.00
20003;BME280;10162;41.600;23.806;2023-05-27T06:55:02;95136.13;;;16.06;100.00
20003;BME280;10162;41.600;23.806;2023-05-27T06:57:48;95142.44;;;15.82;100.00
20003;BME280;10162;41.600;23.806;2023-05-27T07:00:20;95132.91;;;15.51;100.00
20003;BME280;10162;41.600;23.806;2023-05-27T07:03:05;95131.69;;;15.54;100.00
20003;BME280;10162;41.600;23.806;2023-05-27T07:05:31;95123.78;;;15.54;100.00
20003;BME280;10162;41.600;23.806;2023-05-27T07:07:57;95127.31;;;15.48;100.00
20003;BME280;10162;41.600;23.806;2023-05-27T07:10:24;95134.91;;;15.56;100.00
20003;BME280;10162;41.600;23.806;2023-05-27T07:12:49;95143.84;;;15.55;100.00
20003;BME280;10162;41.600;23.806;2023-05-27T07:15:38;95128.31;;;15.47;100.00
20003;BME280;10162;41.600;23.806;2023-05-27T07:18:04;95138.16;;;15.69;100.00
20003;BME280;10162;41.600;23.806;2023-05-27T07:20:32;95124.41;;;15.49;100.00
20003;BME280;10162;41.600;23.806;2023-05-27T07:23:01;95137.78;;;15.54;100.00
20003;BME280;10162;41.600;23.806;2023-05-27T07:25:27;95142.25;;;15.54;100.00
20003;BME280;10162;41.600;23.806;2023-05-27T07:27:53;95132.66;;;15.41;100.00
20003;BME280;10162;41.600;23.806;2023-05-27T07:30:19;95130.50;;;15.50;100.00
20003;BME280;10162;41.600;23.806;2023-05-27T07:32:51;95114.13;;;15.18;100.00
20003;BME280;10162;41.600;23.806;2023-05-27T07:35:17;95127.25;;;15.36;100.00
20003;BME280;10162;41.600;23.806;2023-05-27T07:37:43;95134.69;;;15.57;100.00
20003;BME280;10162;41.600;23.806;2023-05-27T07:40:09;95128.59;;;15.57;100.00
20003;BME280;10162;41.600;23.806;2023-05-27T07:42:41;95130.56;;;15.61;100.00
20003;BME280;10162;41.600;23.806;2023-05-27T07:45:07;95140.16;;;15.56;100.00
20003;BME280;10162;41.600;23.806;2023-05-27T07:47:34;95125.06;;;15.33;100.00
20003;BME280;10162;41.600;23.806;2023-05-27T07:50:00;95143.91;;;15.18;100.00
20003;BME280;10162;41.600;23.806;2023-05-27T07:52:32;95133.41;;;15.30;100.00
20003;BME280;10162;41.600;23.806;2023-05-27T07:55:03;95116.94;;;15.35;100.00
20003;BME280;10162;41.600;23.806;2023-05-27T07:57:29;95142.25;;;15.54;100.00
20003;BME280;10162;41.600;23.806;2023-05-27T07:59:55;95130.63;;;15.43;100.00
20003;BME280;10162;41.600;23.806;2023-05-27T08:05:47;95130.75;;;15.48;100.00
20003;BME280;10162;41.600;23.806;2023-05-27T08:08:39;95128.28;;;15.65;100.00
20003;BME280;10162;41.600;23.806;2023-05-27T08:11:24;95129.47;;;15.92;100.00
20003;BME280;10162;41.600;23.806;2023-05-27T08:13:58;95124.31;;;15.97;100.00
20003;BME280;10162;41.600;23.806;2023-05-27T08:16:45;95141.31;;;16.13;100.00
20003;BME280;10162;41.600;23.806;2023-05-27T08:19:44;95127.78;;;15.98;100.00
20003;BME280;10162;41.600;23.806;2023-05-27T08:22:36;95141.41;;;16.06;100.00
20003;BME280;10162;41.600;23.806;2023-05-27T08:25:22;95115.50;;;16.03;100.00
20003;BME280;10162;41.600;23.806;2023-05-27T08:28:03;95130.31;;;16.16;100.00
20003;BME280;10162;41.600;23.806;2023-05-27T08:30:56;95121.38;;;16.17;100.00
20003;BME280;10162;41.600;23.806;2023-05-27T08:33:33;95132.69;;;16.76;100.00
20003;BME280;10162;41.600;23.806;2023-05-27T08:35:59;95128.59;;;16.68;100.00
20003;BME280;10162;41.600;23.806;2023-05-27T08:38:25;95132.00;;;16.80;100.00
20003;BME280;10162;41.600;23.806;2023-05-27T08:44:25;95118.63;;;16.99;100.00
20003;BME280;10162;41.600;23.806;2023-05-27T08:46:58;95107.72;;;17.35;100.00
20003;BME280;10162;41.600;23.806;2023-05-27T08:49:26;95108.66;;;17.29;100.00
20003;BME280;10162;41.600;23.806;2023-05-27T08:52:19;95115.19;;;17.26;100.00
20003;BME280;10162;41.600;23.806;2023-05-27T08:54:47;95105.00;;;17.47;100.00
20003;BME280;10162;41.600;23.806;2023-05-27T08:57:16;95102.78;;;17.27;100.00
20003;BME280;10162;41.600;23.806;2023-05-27T08:59:43;95108.75;;;17.34;100.00
20003;BME280;10162;41.600;23.806;2023-05-27T09:02:14;95087.78;;;17.44;100.00
20003;BME280;10162;41.600;23.806;2023-05-27T09:04:41;95107.41;;;17.60;100.00
20003;BME280;10162;41.600;23.806;2023-05-27T09:07:07;95089.22;;;17.63;100.00
20003;BME280;10162;41.600;23.806;2023-05-27T09:09:34;95095.78;;;17.77;100.00
20003;BME280;10162;41.600;23.806;2023-05-27T09:15:24;95089.28;;;17.68;100.00
20003;BME280;10162;41.600;23.806;2023-05-27T09:17:51;95104.59;;;18.00;100.00
20003;BME280;10162;41.600;23.806;2023-05-27T09:23:40;95091.28;;;17.78;100.00
20003;BME280;10162;41.600;23.806;2023-05-27T09:26:10;95071.09;;;18.05;100.00
20003;BME280;10162;41.600;23.806;2023-05-27T09:32:32;95065.06;;;19.14;100.00
20003;BME280;10162;41.600;23.806;2023-05-27T09:38:58;95066.84;;;19.30;100.00
20003;BME280;10162;41.600;23.806;2023-05-27T09:41:29;95066.84;;;19.30;100.00
20003;BME280;10162;41.600;23.806;2023-05-27T09:43:55;95069.88;;;19.44;100.00
20003;BME280;10162;41.600;23.806;2023-05-27T09:46:24;95077.16;;;19.80;100.00
20003;BME280;10162;41.600;23.806;2023-05-27T09:48:51;95073.00;;;19.94;100.00
20003;BME280;10162;41.600;23.806;2023-05-27T09:51:19;95073.44;;;19.27;100.00
20003;BME280;10162;41.600;23.806;2023-05-27T09:53:46;95082.91;;;19.18;100.00
20003;BME280;10162;41.600;23.806;2023-05-27T09:56:13;95052.53;;;18.82;100.00
20003;BME280;10162;41.600;23.806;2023-05-27T09:58:39;95065.44;;;18.95;100.00
20003;BME280;10162;41.600;23.806;2023-05-27T10:01:05;95065.84;;;18.87;100.00
20003;BME280;10162;41.600;23.806;2023-05-27T10:03:31;95066.66;;;18.66;100.00
20003;BME280;10162;41.600;23.806;2023-05-27T10:05:58;95062.16;;;18.67;100.00
20003;BME280;10162;41.600;23.806;2023-05-27T10:08:25;95055.97;;;18.39;100.00
20003;BME280;10162;41.600;23.806;2023-05-27T10:11:01;95062.78;;;18.35;100.00
20003;BME280;10162;41.600;23.806;2023-05-27T10:13:28;95074.06;;;18.47;100.00
20003;BME280;10162;41.600;23.806;2023-05-27T10:15:53;95077.19;;;18.61;100.00
20003;BME280;10162;41.600;23.806;2023-05-27T10:18:25;95073.22;;;18.25;100.00
20003;BME280;10162;41.600;23.806;2023-05-27T10:20:56;95075.41;;;18.28;100.00
20003;BME280;10162;41.600;23.806;2023-05-27T10:23:26;95090.00;;;18.14;100.00
20003;BME280;10162;41.600;23.806;2023-05-27T10:26:06;95092.56;;;18.09;100.00
20003;BME280;10162;41.600;23.806;2023-05-27T10:28:37;95082.72;;;17.88;100.00
20003;BME280;10162;41.600;23.806;2023-05-27T10:31:17;95079.03;;;18.05;100.00
20003;BME280;10162;41.600;23.806;2023-05-27T10:33:46;95074.16;;;18.36;100.00
20003;BME280;10162;41.600;23.806;2023-05-27T10:36:14;95058.53;;;18.34;100.00
20003;BME280;10162;41.600;23.806;2023-05-27T10:38:42;95053.13;;;18.07;100.00
20003;BME280;10162;41.600;23.806;2023-05-27T10:41:08;95067.03;;;17.81;100.00
20003;BME280;10162;41.600;23.806;2023-05-27T10:43:35;95058.03;;;17.99;100.00
20003;BME280;10162;41.600;23.806;2023-05-27T10:46:07;95071.75;;;18.34;100.00
20003;BME280;10162;41.600;23.806;2023-05-27T10:48:33;95058.75;;;18.49;100.00
20003;BME280;10162;41.600;23.806;2023-05-27T10:51:00;95067.41;;;18.83;100.00
20003;BME280;10162;41.600;23.806;2023-05-27T10:53:29;95081.28;;;19.44;100.00
20003;BME280;10162;41.600;23.806;2023-05-27T10:55:58;95077.94;;;19.27;100.00
20003;BME280;10162;41.600;23.806;2023-05-27T10:58:24;95081.03;;;19.72;100.00
20003;BME280;10162;41.600;23.806;2023-05-27T11:00:51;95078.28;;;19.57;100.00
20003;BME280;10162;41.600;23.806;2023-05-27T11:03:19;95077.66;;;19.23;100.00
20003;BME280;10162;41.600;23.806;2023-05-27T11:05:47;95063.00;;;18.94;100.00
20003;BME280;10162;41.600;23.806;2023-05-27T11:08:13;95058.88;;;18.81;100.00
20003;BME280;10162;41.600;23.806;2023-05-27T11:13:32;95079.50;;;19.23;100.00
20003;BME280;10162;41.600;23.806;2023-05-27T11:15:59;95079.50;;;19.23;100.00
20003;BME280;10162;41.600;23.806;2023-05-27T11:18:33;95076.50;;;19.41;100.00
20003;BME280;10162;41.600;23.806;2023-05-27T11:20:59;95085.63;;;20.14;100.00
20003;BME280;10162;41.600;23.806;2023-05-27T11:23:40;95076.69;;;20.67;100.00
20003;BME280;10162;41.600;23.806;2023-05-27T11:26:18;95049.31;;;20.61;100.00
20003;BME280;10162;41.600;23.806;2023-05-27T11:31:15;95075.88;;;20.61;100.00
20003;BME280;10162;41.600;23.806;2023-05-27T11:33:42;95079.47;;;20.45;100.00
20003;BME280;10162;41.600;23.806;2023-05-27T11:36:12;95073.91;;;19.73;100.00
20003;BME280;10162;41.600;23.806;2023-05-27T11:38:57;95065.28;;;19.07;100.00
20003;BME280;10162;41.600;23.806;2023-05-27T11:41:28;95069.34;;;18.93;100.00
20003;BME280;10162;41.600;23.806;2023-05-27T11:44:04;95067.00;;;19.18;100.00
20003;BME280;10162;41.600;23.806;2023-05-27T11:49:05;95054.81;;;18.95;100.00
20003;BME280;10162;41.600;23.806;2023-05-27T11:51:41;95067.66;;;19.09;100.00
20003;BME280;10162;41.600;23.806;2023-05-27T11:54:35;95050.25;;;18.91;100.00
20003;BME280;10162;41.600;23.806;2023-05-27T11:57:02;95047.81;;;18.84;100.00
20003;BME280;10162;41.600;23.806;2023-05-27T11:59:34;95045.75;;;18.91;100.00
20003;BME280;10162;41.600;23.806;2023-05-27T12:05:56;95058.53;;;19.21;100.00
20003;BME280;10162;41.600;23.806;2023-05-27T12:08:22;95070.59;;;19.61;100.00
20003;BME280;10162;41.600;23.806;2023-05-27T12:10:50;95064.69;;;19.27;100.00
20003;BME280;10162;41.600;23.806;2023-05-27T12:13:22;95056.97;;;19.47;100.00
20003;BME280;10162;41.600;23.806;2023-05-27T12:15:49;95066.97;;;20.04;92.78
20003;BME280;10162;41.600;23.806;2023-05-27T12:18:15;95045.78;;;19.77;100.00
20003;BME280;10162;41.600;23.806;2023-05-27T12:20:44;95049.53;;;19.76;98.13
20003;BME280;10162;41.600;23.806;2023-05-27T12:23:10;95042.03;;;19.41;100.00
20003;BME280;10162;41.600;23.806;2023-05-27T12:25:36;95033.75;;;19.37;100.00
20003;BME280;10162;41.600;23.806;2023-05-27T12:28:02;95038.28;;;19.64;100.00
20003;BME280;10162;41.600;23.806;2023-05-27T12:30:34;95033.94;;;20.27;100.00
20003;BME280;10162;41.600;23.806;2023-05-27T12:33:02;95027.53;;;20.70;100.00
20003;BME280;10162;41.600;23.806;2023-05-27T12:35:28;95030.78;;;20.92;100.00
20003;BME280;10162;41.600;23.806;2023-05-27T12:37:55;95013.91;;;22.04;95.28
20003;BME280;10162;41.600;23.806;2023-05-27T12:40:21;95026.88;;;21.10;94.48
20003;BME280;10162;41.600;23.806;2023-05-27T12:42:47;95023.59;;;20.82;93.93
20003;BME280;10162;41.600;23.806;2023-05-27T12:45:13;95006.06;;;20.29;100.00
20003;BME280;10162;41.600;23.806;2023-05-27T12:47:39;95015.34;;;20.21;98.41
20003;BME280;10162;41.600;23.806;2023-05-27T12:50:05;95006.31;;;20.80;93.27
20003;BME280;10162;41.600;23.806;2023-05-27T12:52:35;94992.94;;;21.47;82.36
20003;BME280;10162;41.600;23.806;2023-05-27T12:55:01;94989.16;;;21.99;80.39
20003;BME280;10162;41.600;23.806;2023-05-27T12:57:28;94984.81;;;23.02;74.43
20003;BME280;10162;41.600;23.806;2023-05-27T12:59:54;94977.44;;;22.15;70.90
20003;BME280;10162;41.600;23.806;2023-05-27T13:02:24;94979.59;;;21.72;73.29
20003;BME280;10162;41.600;23.806;2023-05-27T13:04:50;94988.38;;;21.48;72.53
20003;BME280;10162;41.600;23.806;2023-05-27T13:07:16;94979.31;;;22.09;70.65
20003;BME280;10162;41.600;23.806;2023-05-27T13:09:44;94974.63;;;24.11;63.54
20003;BME280;10162;41.600;23.806;2023-05-27T13:12:13;94983.31;;;24.75;61.67
20003;BME280;10162;41.600;23.806;2023-05-27T13:14:39;94973.31;;;25.23;55.70
20003;BME280;10162;41.600;23.806;2023-05-27T13:17:06;94972.53;;;24.80;60.69
20003;BME280;10162;41.600;23.806;2023-05-27T13:19:33;94979.78;;;24.55;57.38
20003;BME280;10162;41.600;23.806;2023-05-27T13:22:10;94967.66;;;24.63;58.07
20003;BME280;10162;41.600;23.806;2023-05-27T13:24:36;94971.81;;;24.26;57.74
20003;BME280;10162;41.600;23.806;2023-05-27T13:27:02;94947.50;;;23.99;59.10
20003;BME280;10162;41.600;23.806;2023-05-27T13:29:28;94955.22;;;24.96;57.58
20003;BME280;10162;41.600;23.806;2023-05-27T13:32:10;94960.50;;;25.01;55.42
20003;BME280;10162;41.600;23.806;2023-05-27T13:34:36;94955.13;;;24.82;57.80
20003;BME280;10162;41.600;23.806;2023-05-27T13:37:02;94949.56;;;25.35;54.64
20003;BME280;10162;41.600;23.806;2023-05-27T13:39:28;94939.50;;;24.70;56.20
20003;BME280;10162;41.600;23.806;2023-05-27T13:42:00;94939.78;;;24.69;55.82
20003;BME280;10162;41.600;23.806;2023-05-27T13:44:26;94932.44;;;22.83;58.88
20003;BME280;10162;41.600;23.806;2023-05-27T13:46:52;94927.59;;;23.29;57.94
20003;BME280;10162;41.600;23.806;2023-05-27T13:49:18;94949.28;;;24.38;54.08
20003;BME280;10162;41.600;23.806;2023-05-27T13:51:46;94928.59;;;22.99;55.76
20003;BME280;10162;41.600;23.806;2023-05-27T13:54:12;94920.09;;;22.92;55.05
20003;BME280;10162;41.600;23.806;2023-05-27T13:56:38;94940.28;;;24.28;55.34
20003;BME280;10162;41.600;23.806;2023-05-27T13:59:06;94923.72;;;24.50;55.48
20003;BME280;10162;41.600;23.806;2023-05-27T14:01:42;94923.38;;;24.09;51.94
20003;BME280;10162;41.600;23.806;2023-05-27T14:04:08;94914.75;;;24.17;55.81
20003;BME280;10162;41.600;23.806;2023-05-27T14:06:34;94908.06;;;24.62;54.46
20003;BME280;10162;41.600;23.806;2023-05-27T14:09:02;94904.84;;;25.03;52.44
20003;BME280;10162;41.600;23.806;2023-05-27T14:11:35;94901.81;;;25.09;51.97
20003;BME280;10162;41.600;23.806;2023-05-27T14:14:00;94901.34;;;24.84;54.39
20003;BME280;10162;41.600;23.806;2023-05-27T14:16:26;94895.41;;;23.49;56.87
20003;BME280;10162;41.600;23.806;2023-05-27T14:18:52;94902.16;;;24.23;57.24
20003;BME280;10162;41.600;23.806;2023-05-27T14:21:21;94872.81;;;25.95;54.19
20003;BME280;10162;41.600;23.806;2023-05-27T14:23:46;94905.84;;;25.90;52.77
20003;BME280;10162;41.600;23.806;2023-05-27T14:26:12;94887.16;;;25.39;56.93